createdAt,value
2022-09-18T00:00:20.201Z,23.50
2022-09-18T00:02:51.156Z,22.33
2022-09-18T00:05:21.781Z,29.63
2022-09-18T00:07:52.891Z,35.10
2022-09-18T00:10:23.492Z,20.88
2022-09-18T00:12:58.604Z,20.77
2022-09-18T00:15:29.566Z,19.92
2022-09-18T00:18:00.219Z,20.30
2022-09-18T00:20:31.521Z,27.73
2022-09-18T00:23:02.448Z,20.92
2022-09-18T00:25:33.876Z,21.08
2022-09-18T00:28:04.502Z,21.00
2022-09-18T00:30:35.081Z,19.55
2022-09-18T00:33:06.306Z,20.27
2022-09-18T00:35:37.530Z,20.70
2022-09-18T00:38:08.769Z,20.77
2022-09-18T00:40:39.792Z,21.48
2022-09-18T00:43:20.912Z,21.80
2022-09-18T00:45:59.877Z,21.42
2022-09-18T00:48:40.903Z,20.15
2022-09-18T00:51:11.849Z,20.02
2022-09-18T00:53:46.192Z,17.48
2022-09-18T00:56:18.733Z,17.08
2022-09-18T00:58:50.633Z,18.00
2022-09-18T01:01:21.505Z,19.08
2022-09-18T01:03:53.029Z,18.67
2022-09-18T01:06:32.975Z,34.50
2022-09-18T01:09:11.987Z,23.52
2022-09-18T01:11:53.904Z,25.38
2022-09-18T01:14:44.841Z,19.25
2022-09-18T01:17:29.228Z,17.67
2022-09-18T01:20:19.666Z,18.88
2022-09-18T01:23:09.817Z,18.65
2022-09-18T01:25:48.425Z,18.58
2022-09-18T01:28:33.427Z,19.48
2022-09-18T01:31:06.785Z,20.73
2022-09-18T01:33:48.050Z,20.77
2022-09-18T01:36:19.831Z,21.05
2022-09-18T01:38:54.219Z,22.35
2022-09-18T01:41:30.139Z,21.23
2022-09-18T01:44:05.295Z,21.02
2022-09-18T01:46:37.284Z,23.15
2022-09-18T01:49:11.499Z,20.92
2022-09-18T01:51:50.844Z,20.48
2022-09-18T01:54:24.263Z,21.13
2022-09-18T01:57:06.058Z,22.60
2022-09-18T01:59:39.949Z,25.20
2022-09-18T02:02:15.658Z,20.33
2022-09-18T02:04:47.748Z,20.98
2022-09-18T02:07:26.957Z,21.25
2022-09-18T02:09:58.412Z,20.25
2022-09-18T02:12:33.466Z,18.77
2022-09-18T02:15:08.537Z,19.85
2022-09-18T02:18:01.556Z,20.05
2022-09-18T02:20:41.177Z,19.73
2022-09-18T02:23:12.144Z,21.02
2022-09-18T02:26:00.687Z,21.35
2022-09-18T02:28:32.783Z,22.10
2022-09-18T02:31:04.501Z,21.70
2022-09-18T02:33:37.024Z,22.20
2022-09-18T02:36:28.381Z,23.50
2022-09-18T02:39:18.806Z,23.40
2022-09-18T02:42:10.579Z,21.35
2022-09-18T02:44:50.858Z,24.55
2022-09-18T02:47:41.955Z,21.83
2022-09-18T02:50:26.257Z,22.33
2022-09-18T02:53:17.231Z,21.83
2022-09-18T02:55:57.414Z,24.00
2022-09-18T02:58:31.923Z,21.65
2022-09-18T03:01:06.058Z,23.88
2022-09-18T03:03:40.428Z,20.20
2022-09-18T03:06:14.011Z,23.08
2022-09-18T03:08:45.552Z,20.55
2022-09-18T03:11:17.666Z,18.20
2022-09-18T03:13:49.031Z,17.23
2022-09-18T03:16:20.376Z,21.75
2022-09-18T03:18:51.844Z,17.92
2022-09-18T03:21:22.919Z,17.00
2022-09-18T03:23:54.251Z,14.48
2022-09-18T03:26:30.465Z,21.67
2022-09-18T03:29:03.041Z,47.17
2022-09-18T03:31:35.087Z,23.45
2022-09-18T03:34:07.837Z,24.95
2022-09-18T03:36:39.132Z,28.90
2022-09-18T03:39:10.725Z,10.38
2022-09-18T03:41:42.950Z,10.88
2022-09-18T03:44:14.138Z,8.25
2022-09-18T03:46:47.575Z,8.70
2022-09-18T03:49:18.509Z,9.13
2022-09-18T03:51:49.299Z,8.45
2022-09-18T03:54:20.066Z,7.78
2022-09-18T03:57:10.556Z,8.05
2022-09-18T03:59:50.561Z,16.73
2022-09-18T04:02:40.808Z,12.80
2022-09-18T04:05:31.082Z,7.78
2022-09-18T04:08:21.920Z,6.95
2022-09-18T04:11:13.190Z,6.45
2022-09-18T04:13:46.189Z,7.28
2022-09-18T04:16:17.485Z,8.90
2022-09-18T04:18:48.593Z,4.57
2022-09-18T04:21:19.843Z,7.60
2022-09-18T04:23:51.240Z,5.13
2022-09-18T04:26:23.594Z,5.97
2022-09-18T04:28:57.601Z,8.10
2022-09-18T04:31:29.806Z,7.68
2022-09-18T04:34:05.194Z,19.42
2022-09-18T04:36:38.001Z,17.77
2022-09-18T04:39:10.548Z,4.70
2022-09-18T04:41:41.747Z,4.65
2022-09-18T04:44:12.705Z,4.57
2022-09-18T04:46:43.826Z,6.57
2022-09-18T04:49:14.915Z,4.50
2022-09-18T04:51:46.671Z,5.30
2022-09-18T04:54:20.081Z,5.00
2022-09-18T04:56:51.268Z,4.55
2022-09-18T04:59:22.466Z,4.95
2022-09-18T05:01:57.285Z,5.80
2022-09-18T05:04:28.408Z,7.75
2022-09-18T05:07:10.437Z,5.03
2022-09-18T05:09:42.282Z,5.55
2022-09-18T05:12:13.574Z,6.40
2022-09-18T05:14:44.619Z,5.65
2022-09-18T05:17:18.484Z,6.07
2022-09-18T05:20:01.970Z,4.97
2022-09-18T05:22:40.473Z,6.15
2022-09-18T05:25:14.895Z,7.50
2022-09-18T05:27:45.589Z,9.15
2022-09-18T05:30:16.856Z,6.13
2022-09-18T05:33:04.544Z,5.10
2022-09-18T05:35:36.768Z,7.25
2022-09-18T05:38:07.683Z,10.07
2022-09-18T05:40:39.931Z,7.63
2022-09-18T05:43:13.055Z,7.78
2022-09-18T05:45:45.020Z,7.38
2022-09-18T05:48:24.693Z,7.10
2022-09-18T05:50:55.697Z,7.85
2022-09-18T05:53:29.554Z,10.52
2022-09-18T05:56:20.677Z,6.78
2022-09-18T05:58:51.792Z,6.32
2022-09-18T06:01:22.944Z,6.35
2022-09-18T06:04:13.050Z,5.57
2022-09-18T06:06:51.930Z,7.53
2022-09-18T06:09:23.573Z,6.50
2022-09-18T06:11:54.668Z,6.38
2022-09-18T06:14:26.868Z,5.95
2022-09-18T06:16:57.536Z,6.25
2022-09-18T06:19:28.665Z,6.70
2022-09-18T06:22:03.235Z,6.70
2022-09-18T06:24:36.589Z,7.10
2022-09-18T06:27:12.845Z,7.22
2022-09-18T06:29:43.677Z,8.02
2022-09-18T06:32:18.548Z,8.40
2022-09-18T06:34:51.173Z,6.97
2022-09-18T06:37:22.012Z,7.80
2022-09-18T06:40:08.384Z,7.70
2022-09-18T06:42:57.878Z,6.68
2022-09-18T06:45:54.276Z,5.90
2022-09-18T06:48:27.830Z,5.47
2022-09-18T06:51:01.819Z,5.88
2022-09-18T06:53:39.981Z,7.60
2022-09-18T06:56:12.573Z,6.05
2022-09-18T06:58:43.586Z,8.20
2022-09-18T07:01:19.023Z,6.32
2022-09-18T07:03:52.609Z,6.70
2022-09-18T07:06:25.556Z,7.07
2022-09-18T07:08:56.763Z,8.57
2022-09-18T07:11:51.048Z,7.50
2022-09-18T07:14:22.338Z,7.80
2022-09-18T07:16:57.341Z,6.82
2022-09-18T07:19:28.226Z,7.60
2022-09-18T07:22:00.282Z,7.18
2022-09-18T07:24:35.492Z,7.60
2022-09-18T07:27:07.705Z,7.95
2022-09-18T07:29:41.514Z,7.95
2022-09-18T07:32:17.519Z,7.95
2022-09-18T07:34:48.862Z,7.75
2022-09-18T07:37:27.278Z,7.35
2022-09-18T07:40:14.556Z,7.32
2022-09-18T07:43:06.606Z,7.32
2022-09-18T07:45:39.209Z,7.10
2022-09-18T07:48:10.794Z,6.95
2022-09-18T07:50:48.447Z,7.95
2022-09-18T07:53:20.596Z,7.75
2022-09-18T07:55:57.683Z,7.97
2022-09-18T07:58:30.856Z,6.70
2022-09-18T08:01:08.232Z,6.90
2022-09-18T08:03:50.321Z,6.60
2022-09-18T08:06:41.110Z,6.60
2022-09-18T08:09:19.973Z,7.03
2022-09-18T08:12:10.357Z,6.30
2022-09-18T08:14:54.372Z,6.30
2022-09-18T08:17:48.388Z,6.63
2022-09-18T08:20:39.319Z,6.63
2022-09-18T08:23:18.898Z,6.28
2022-09-18T08:25:50.699Z,7.85
2022-09-18T08:28:22.205Z,6.72
2022-09-18T08:30:59.889Z,5.70
2022-09-18T08:33:30.995Z,5.35
2022-09-18T08:36:03.632Z,6.85
2022-09-18T08:38:37.883Z,6.47
2022-09-18T08:41:48.547Z,9.23
2022-09-18T08:44:41.434Z,7.07
2022-09-18T08:47:23.771Z,7.15
2022-09-18T08:50:15.804Z,6.78
2022-09-18T08:52:48.984Z,6.60
2022-09-18T08:55:36.110Z,6.72
2022-09-18T08:58:32.601Z,7.28
2022-09-18T09:01:06.168Z,6.65
2022-09-18T09:04:06.016Z,7.25
2022-09-18T09:06:58.154Z,8.00
2022-09-18T09:09:53.348Z,7.35
2022-09-18T09:12:38.381Z,7.80
2022-09-18T09:15:21.959Z,8.07
2022-09-18T09:18:18.530Z,8.40
2022-09-18T09:20:58.903Z,7.40
2022-09-18T09:23:53.665Z,7.70
2022-09-18T09:26:44.739Z,8.05
2022-09-18T09:29:38.219Z,6.97
2022-09-18T09:32:31.640Z,7.07
2022-09-18T09:35:32.244Z,6.95
2022-09-18T09:38:31.722Z,7.25
2022-09-18T09:41:09.427Z,7.55
2022-09-18T09:44:00.403Z,6.82
2022-09-18T09:46:43.156Z,7.13
2022-09-18T09:49:17.202Z,6.57
2022-09-18T09:51:57.392Z,7.53
2022-09-18T09:54:29.521Z,7.97
2022-09-18T09:57:12.105Z,8.15
2022-09-18T10:00:02.830Z,7.22
2022-09-18T10:03:12.873Z,7.78
2022-09-18T10:05:57.673Z,8.23
2022-09-18T10:08:36.923Z,8.35
2022-09-18T10:11:10.607Z,7.20
2022-09-18T10:13:59.265Z,7.88
2022-09-18T10:16:32.730Z,8.57
2022-09-18T10:19:04.353Z,7.97
2022-09-18T10:21:37.731Z,10.98
2022-09-18T10:24:29.450Z,11.20
2022-09-18T10:27:06.633Z,8.52
2022-09-18T10:29:39.079Z,9.57
2022-09-18T10:32:14.657Z,7.63
2022-09-18T10:34:53.876Z,6.45
2022-09-18T10:37:46.137Z,7.47
2022-09-18T10:40:42.015Z,7.32
2022-09-18T10:43:20.615Z,6.90
2022-09-18T10:45:58.925Z,7.85
2022-09-18T10:48:35.630Z,7.60
2022-09-18T10:51:08.355Z,7.55
2022-09-18T10:53:44.996Z,7.25
2022-09-18T10:56:29.151Z,7.38
2022-09-18T10:59:16.171Z,8.45
2022-09-18T11:01:48.688Z,7.55
2022-09-18T11:04:20.138Z,6.22
2022-09-18T11:06:52.026Z,6.32
2022-09-18T11:09:38.422Z,8.18
2022-09-18T11:12:22.090Z,8.40
2022-09-18T11:15:04.099Z,6.80
2022-09-18T11:17:36.268Z,6.10
2022-09-18T11:20:09.024Z,12.70
2022-09-18T11:22:54.917Z,11.48
2022-09-18T11:25:32.890Z,9.20
2022-09-18T11:28:41.949Z,7.95
2022-09-18T11:31:21.629Z,5.88
2022-09-18T11:34:05.595Z,7.38
2022-09-18T11:36:42.930Z,7.07
2022-09-18T11:39:21.352Z,7.10
2022-09-18T11:41:56.855Z,8.10
2022-09-18T11:44:35.373Z,7.05
2022-09-18T11:47:41.805Z,7.05
2022-09-18T11:50:27.232Z,7.03
2022-09-18T11:53:05.827Z,7.47
2022-09-18T11:55:55.448Z,7.03
2022-09-18T11:58:56.072Z,10.27
2022-09-18T12:01:56.354Z,8.90
2022-09-18T12:04:51.178Z,9.02
2022-09-18T12:08:01.083Z,11.48
2022-09-18T12:11:08.998Z,14.85
2022-09-18T12:14:14.539Z,25.23
2022-09-18T12:17:01.820Z,21.10
2022-09-18T12:19:50.133Z,13.27
2022-09-18T12:22:45.825Z,12.18
2022-09-18T12:25:20.221Z,13.02
2022-09-18T12:28:50.788Z,11.45
2022-09-18T12:32:01.021Z,14.85
2022-09-18T12:35:03.547Z,11.07
2022-09-18T12:38:13.305Z,12.00
2022-09-18T12:41:13.493Z,11.10
2022-09-18T12:44:11.080Z,8.75
2022-09-18T12:47:15.049Z,8.38
2022-09-18T12:50:28.533Z,7.50
2022-09-18T12:53:27.422Z,8.73
2022-09-18T12:56:47.392Z,20.33
2022-09-18T12:59:57.126Z,21.25
2022-09-18T13:03:07.631Z,8.07
2022-09-18T13:05:53.323Z,7.20
2022-09-18T13:08:47.158Z,7.95
2022-09-18T13:11:41.231Z,10.05
2022-09-18T13:14:35.921Z,9.77
2022-09-18T13:17:30.630Z,8.02
2022-09-18T13:20:24.323Z,8.20
2022-09-18T13:23:00.323Z,7.82
2022-09-18T13:25:41.296Z,9.18
2022-09-18T13:28:17.446Z,8.85
2022-09-18T13:31:10.861Z,8.30
2022-09-18T13:33:50.923Z,8.38
2022-09-18T13:36:42.788Z,12.68
2022-09-18T13:39:40.896Z,12.18
2022-09-18T13:42:42.341Z,13.50
2022-09-18T13:45:26.866Z,15.63
2022-09-18T13:48:08.523Z,14.13
2022-09-18T13:50:50.205Z,15.15
2022-09-18T13:53:43.723Z,13.98
2022-09-18T13:56:16.654Z,13.23
2022-09-18T13:58:59.865Z,14.77
2022-09-18T14:02:08.304Z,14.65
2022-09-18T14:05:01.675Z,12.98
2022-09-18T14:08:09.747Z,12.32
2022-09-18T14:11:15.389Z,16.25
2022-09-18T14:13:57.369Z,15.68
2022-09-18T14:16:35.947Z,15.07
2022-09-18T14:19:33.547Z,13.35
2022-09-18T14:22:15.110Z,13.27
2022-09-18T14:24:59.330Z,13.55
2022-09-18T14:27:59.265Z,63.78
2022-09-18T14:30:36.710Z,15.23
2022-09-18T14:33:23.800Z,14.60
2022-09-18T14:36:08.125Z,13.85
2022-09-18T14:38:45.686Z,13.75
2022-09-18T14:41:27.150Z,14.40
2022-09-18T14:44:05.806Z,14.73
2022-09-18T14:46:36.433Z,13.48
2022-09-18T14:49:27.616Z,15.30
2022-09-18T14:52:03.940Z,15.00
2022-09-18T14:54:41.086Z,18.17
2022-09-18T14:57:15.075Z,16.55
2022-09-18T14:59:45.762Z,16.90
2022-09-18T15:02:36.150Z,14.85
2022-09-18T15:05:14.923Z,15.23
2022-09-18T15:08:15.786Z,11.63
2022-09-18T15:10:50.606Z,10.07
2022-09-18T15:13:23.667Z,10.40
2022-09-18T15:16:08.594Z,17.60
2022-09-18T15:18:45.417Z,18.80
2022-09-18T15:21:41.290Z,19.77
2022-09-18T15:24:18.206Z,11.90
2022-09-18T15:26:57.057Z,12.85
2022-09-18T15:29:45.460Z,12.43
2022-09-18T15:32:36.442Z,16.13
2022-09-18T15:35:11.036Z,13.10
2022-09-18T15:37:42.965Z,11.25
2022-09-18T15:40:22.588Z,11.13
2022-09-18T15:43:08.221Z,16.02
2022-09-18T15:45:40.174Z,11.45
2022-09-18T15:48:41.490Z,10.52
2022-09-18T15:51:27.795Z,11.07
2022-09-18T15:54:36.793Z,11.75
2022-09-18T15:57:08.001Z,11.25
2022-09-18T15:59:42.440Z,11.68
2022-09-18T16:02:41.103Z,24.20
2022-09-18T16:05:20.015Z,12.85
2022-09-18T16:08:03.808Z,10.38
2022-09-18T16:10:55.119Z,10.80
2022-09-18T16:13:41.800Z,12.32
2022-09-18T16:16:25.849Z,11.23
2022-09-18T16:19:11.953Z,10.23
2022-09-18T16:21:46.375Z,9.57
2022-09-18T16:24:31.911Z,10.23
2022-09-18T16:27:10.305Z,10.00
2022-09-18T16:29:41.781Z,10.43
2022-09-18T16:32:14.242Z,10.80
2022-09-18T16:34:48.609Z,11.15
2022-09-18T16:37:19.237Z,11.27
2022-09-18T16:39:49.857Z,11.18
2022-09-18T16:42:21.966Z,9.02
2022-09-18T16:44:54.125Z,8.93
2022-09-18T16:47:28.470Z,7.90
2022-09-18T16:49:59.097Z,8.50
2022-09-18T16:52:29.953Z,22.27
2022-09-18T16:55:00.497Z,53.00
2022-09-18T16:57:31.888Z,10.13
2022-09-18T17:00:10.490Z,6.68
2022-09-18T17:02:41.322Z,6.80
2022-09-18T17:05:12.978Z,8.48
2022-09-18T17:07:45.508Z,8.80
2022-09-18T17:10:16.940Z,10.07
2022-09-18T17:12:48.395Z,10.18
2022-09-18T17:15:19.190Z,8.32
2022-09-18T17:17:50.509Z,8.32
2022-09-18T17:20:21.873Z,9.40
2022-09-18T17:22:53.303Z,11.15
2022-09-18T17:25:24.288Z,9.70
2022-09-18T17:27:55.438Z,9.75
2022-09-18T17:30:27.403Z,10.10
2022-09-18T17:32:58.513Z,9.82
2022-09-18T17:35:29.574Z,10.80
2022-09-18T17:38:00.453Z,10.23
2022-09-18T17:40:31.478Z,9.23
2022-09-18T17:43:02.448Z,9.77
2022-09-18T17:45:35.269Z,10.25
2022-09-18T17:48:06.399Z,10.50
2022-09-18T17:50:38.675Z,11.13
2022-09-18T17:53:10.778Z,11.30
2022-09-18T17:55:41.757Z,11.57
2022-09-18T17:58:13.303Z,12.35
2022-09-18T18:00:44.214Z,12.30
2022-09-18T18:03:15.639Z,11.48
2022-09-18T18:06:06.322Z,12.30
2022-09-18T18:08:37.707Z,12.45
2022-09-18T18:11:14.621Z,13.05
2022-09-18T18:13:47.257Z,15.05
2022-09-18T18:16:25.275Z,13.93
2022-09-18T18:18:58.935Z,14.50
2022-09-18T18:21:30.836Z,14.40
2022-09-18T18:24:05.398Z,35.63
2022-09-18T18:26:36.517Z,21.80
2022-09-18T18:29:13.031Z,16.77
2022-09-18T18:31:45.053Z,16.20
2022-09-18T18:34:17.159Z,16.60
2022-09-18T18:36:48.196Z,17.65
2022-09-18T18:39:19.453Z,16.20
2022-09-18T18:41:50.358Z,17.73
2022-09-18T18:44:20.875Z,17.30
2022-09-18T18:46:53.023Z,17.92
2022-09-18T18:49:24.083Z,18.10
2022-09-18T18:51:55.178Z,18.80
2022-09-18T18:54:26.894Z,17.63
2022-09-18T18:57:01.397Z,19.02
2022-09-18T18:59:32.359Z,19.55
2022-09-18T19:02:04.286Z,18.73
2022-09-18T19:04:38.127Z,19.45
2022-09-18T19:07:10.032Z,19.20
2022-09-18T19:09:40.845Z,20.15
2022-09-18T19:12:12.426Z,19.13
2022-09-18T19:14:43.365Z,18.65
2022-09-18T19:17:15.855Z,19.10
2022-09-18T19:19:46.994Z,19.92
2022-09-18T19:22:20.684Z,19.58
2022-09-18T19:24:51.462Z,17.83
2022-09-18T19:27:22.335Z,19.08
2022-09-18T19:29:53.023Z,19.23
2022-09-18T19:32:24.011Z,20.70
2022-09-18T19:34:55.680Z,20.38
2022-09-18T19:37:26.849Z,19.58
2022-09-18T19:39:57.602Z,20.40
2022-09-18T19:42:29.977Z,20.52
2022-09-18T19:45:04.398Z,21.70
2022-09-18T19:47:42.769Z,20.92
2022-09-18T19:50:19.500Z,21.48
2022-09-18T19:52:51.647Z,22.23
2022-09-18T19:55:25.529Z,22.67
2022-09-18T19:57:58.289Z,24.45
2022-09-18T20:00:30.044Z,23.42
2022-09-18T20:03:01.938Z,22.67
2022-09-18T20:05:32.800Z,22.50
2022-09-18T20:08:03.933Z,22.20
2022-09-18T20:10:35.787Z,22.58
2022-09-18T20:13:07.272Z,23.17
2022-09-18T20:15:38.637Z,23.92
2022-09-18T20:18:10.009Z,24.30
2022-09-18T20:20:41.008Z,23.10
2022-09-18T20:23:12.210Z,22.60
2022-09-18T20:25:43.007Z,22.08
2022-09-18T20:28:13.586Z,21.38
2022-09-18T20:30:44.691Z,22.10
2022-09-18T20:33:15.641Z,20.83
2022-09-18T20:35:47.345Z,20.65
2022-09-18T20:38:18.307Z,21.50
2022-09-18T20:40:58.300Z,21.95
2022-09-18T20:43:30.252Z,21.63
2022-09-18T20:46:09.105Z,22.50
2022-09-18T20:48:43.235Z,21.80
2022-09-18T20:51:15.169Z,23.23
2022-09-18T20:53:47.056Z,22.42
2022-09-18T20:56:18.459Z,22.75
2022-09-18T20:58:50.883Z,23.50
2022-09-18T21:01:28.250Z,23.02
2022-09-18T21:04:04.091Z,21.73
2022-09-18T21:06:36.213Z,24.15
2022-09-18T21:09:10.428Z,22.52
2022-09-18T21:11:46.723Z,23.65
2022-09-18T21:14:17.964Z,22.63
2022-09-18T21:16:49.930Z,26.13
2022-09-18T21:19:21.924Z,23.90
2022-09-18T21:21:52.922Z,22.83
2022-09-18T21:24:24.662Z,23.75
2022-09-18T21:26:55.674Z,23.15
2022-09-18T21:29:29.092Z,22.85
2022-09-18T21:32:01.958Z,22.23
2022-09-18T21:34:35.783Z,22.08
2022-09-18T21:37:13.801Z,23.73
2022-09-18T21:39:45.987Z,23.88
2022-09-18T21:42:18.963Z,21.58
2022-09-18T21:44:49.549Z,22.75
2022-09-18T21:47:20.352Z,23.33
2022-09-18T21:49:51.028Z,24.98
2022-09-18T21:52:22.242Z,24.35
2022-09-18T21:54:54.143Z,25.00
2022-09-18T21:57:25.042Z,25.23
2022-09-18T21:59:56.242Z,24.30
2022-09-18T22:02:28.367Z,26.88
2022-09-18T22:04:59.784Z,25.52
2022-09-18T22:07:32.234Z,24.95
2022-09-18T22:10:02.763Z,25.90
2022-09-18T22:12:34.638Z,25.27
2022-09-18T22:15:05.556Z,24.95
2022-09-18T22:17:36.712Z,26.27
2022-09-18T22:20:07.773Z,24.35
2022-09-18T22:22:38.610Z,25.15
2022-09-18T22:25:09.755Z,24.23
2022-09-18T22:27:40.473Z,25.92
2022-09-18T22:30:12.503Z,25.45
2022-09-18T22:32:43.340Z,24.98
2022-09-18T22:35:14.021Z,25.88
2022-09-18T22:37:44.530Z,28.35
2022-09-18T22:40:15.468Z,26.17
2022-09-18T22:42:46.920Z,26.27
2022-09-18T22:45:18.221Z,26.58
2022-09-18T22:47:48.823Z,25.73
2022-09-18T22:50:19.649Z,28.50
2022-09-18T22:52:50.976Z,28.23
2022-09-18T22:55:22.999Z,35.67
2022-09-18T22:57:54.927Z,28.20
2022-09-18T23:00:25.798Z,27.73
2022-09-18T23:02:57.467Z,28.00
2022-09-18T23:05:28.104Z,25.92
2022-09-18T23:07:58.918Z,25.92
2022-09-18T23:10:30.583Z,27.02
2022-09-18T23:13:01.466Z,24.27
2022-09-18T23:15:32.740Z,28.08
2022-09-18T23:18:03.712Z,27.10
2022-09-18T23:20:34.641Z,52.00
2022-09-18T23:23:06.313Z,26.05
2022-09-18T23:25:38.467Z,27.83
2022-09-18T23:28:09.394Z,29.73
2022-09-18T23:30:40.654Z,32.97
2022-09-18T23:33:11.575Z,29.85
2022-09-18T23:35:42.482Z,30.25
2022-09-18T23:38:13.097Z,30.92
2022-09-18T23:40:44.904Z,30.50
2022-09-18T23:43:16.455Z,30.13
2022-09-18T23:45:47.826Z,30.23
2022-09-18T23:48:18.662Z,29.05
2022-09-18T23:50:49.158Z,27.40
2022-09-18T23:53:23.909Z,28.20
2022-09-18T23:55:54.475Z,28.80
2022-09-18T23:58:24.939Z,28.50
